sensor_id;sensor_type;location;lat;lon;timestamp;P1;durP1;ratioP1;P2;durP2;ratioP2
3095;SDS011;1558;42.700;23.360;2023-07-31T00:02:10;4.53;;;4.17;;
3095;SDS011;1558;42.700;23.360;2023-07-31T00:04:38;4.83;;;4.40;;
3095;SDS011;1558;42.700;23.360;2023-07-31T00:07:06;4.40;;;4.00;;
3095;SDS011;1558;42.700;23.360;2023-07-31T00:09:34;4.70;;;4.30;;
3095;SDS011;1558;42.700;23.360;2023-07-31T00:12:02;4.57;;;4.17;;
3095;SDS011;1558;42.700;23.360;2023-07-31T00:14:31;4.50;;;4.10;;
3095;SDS011;1558;42.700;23.360;2023-07-31T00:16:59;4.40;;;4.03;;
3095;SDS011;1558;42.700;23.360;2023-07-31T00:19:29;4.30;;;4.00;;
3095;SDS011;1558;42.700;23.360;2023-07-31T00:21:56;4.47;;;4.17;;
3095;SDS011;1558;42.700;23.360;2023-07-31T00:24:25;4.77;;;4.40;;
3095;SDS011;1558;42.700;23.360;2023-07-31T00:26:53;4.70;;;4.30;;
3095;SDS011;1558;42.700;23.360;2023-07-31T00:29:21;4.57;;;4.17;;
3095;SDS011;1558;42.700;23.360;2023-07-31T00:31:49;4.57;;;4.27;;
3095;SDS011;1558;42.700;23.360;2023-07-31T00:34:17;5.10;;;4.70;;
3095;SDS011;1558;42.700;23.360;2023-07-31T00:36:46;5.10;;;4.70;;
3095;SDS011;1558;42.700;23.360;2023-07-31T00:39:14;8.43;;;4.35;;
3095;SDS011;1558;42.700;23.360;2023-07-31T00:41:43;5.20;;;4.80;;
3095;SDS011;1558;42.700;23.360;2023-07-31T00:44:11;5.10;;;4.70;;
3095;SDS011;1558;42.700;23.360;2023-07-31T00:46:39;5.17;;;4.77;;
3095;SDS011;1558;42.700;23.360;2023-07-31T00:49:07;5.17;;;4.77;;
3095;SDS011;1558;42.700;23.360;2023-07-31T00:51:36;5.60;;;5.20;;
3095;SDS011;1558;42.700;23.360;2023-07-31T00:54:05;5.20;;;4.77;;
3095;SDS011;1558;42.700;23.360;2023-07-31T00:56:33;6.00;;;5.50;;
3095;SDS011;1558;42.700;23.360;2023-07-31T00:59:02;5.53;;;5.03;;
3095;SDS011;1558;42.700;23.360;2023-07-31T01:01:30;6.23;;;5.70;;
3095;SDS011;1558;42.700;23.360;2023-07-31T01:03:58;6.43;;;5.90;;
3095;SDS011;1558;42.700;23.360;2023-07-31T01:06:28;7.30;;;6.67;;
3095;SDS011;1558;42.700;23.360;2023-07-31T01:09:04;6.93;;;6.33;;
3095;SDS011;1558;42.700;23.360;2023-07-31T01:11:44;8.20;;;7.60;;
3095;SDS011;1558;42.700;23.360;2023-07-31T01:14:19;8.90;;;8.10;;
3095;SDS011;1558;42.700;23.360;2023-07-31T01:16:47;9.70;;;9.00;;
3095;SDS011;1558;42.700;23.360;2023-07-31T01:19:15;10.37;;;9.57;;
3095;SDS011;1558;42.700;23.360;2023-07-31T01:21:54;10.87;;;10.07;;
3095;SDS011;1558;42.700;23.360;2023-07-31T01:24:39;11.17;;;10.37;;
3095;SDS011;1558;42.700;23.360;2023-07-31T01:27:21;11.93;;;11.03;;
3095;SDS011;1558;42.700;23.360;2023-07-31T01:29:54;12.20;;;11.30;;
3095;SDS011;1558;42.700;23.360;2023-07-31T01:32:37;13.53;;;12.23;;
3095;SDS011;1558;42.700;23.360;2023-07-31T01:35:08;14.20;;;13.03;;
3095;SDS011;1558;42.700;23.360;2023-07-31T01:37:36;13.43;;;12.33;;
3095;SDS011;1558;42.700;23.360;2023-07-31T01:40:05;14.53;;;13.23;;
3095;SDS011;1558;42.700;23.360;2023-07-31T01:42:35;15.30;;;13.90;;
3095;SDS011;1558;42.700;23.360;2023-07-31T01:45:03;15.63;;;14.43;;
3095;SDS011;1558;42.700;23.360;2023-07-31T01:47:32;15.20;;;14.00;;
3095;SDS011;1558;42.700;23.360;2023-07-31T01:50:00;15.87;;;14.57;;
3095;SDS011;1558;42.700;23.360;2023-07-31T01:52:28;16.10;;;14.70;;
3095;SDS011;1558;42.700;23.360;2023-07-31T01:54:56;17.23;;;15.83;;
3095;SDS011;1558;42.700;23.360;2023-07-31T01:57:24;17.83;;;16.27;;
3095;SDS011;1558;42.700;23.360;2023-07-31T01:59:54;17.97;;;16.47;;
3095;SDS011;1558;42.700;23.360;2023-07-31T02:02:22;18.17;;;16.67;;
3095;SDS011;1558;42.700;23.360;2023-07-31T02:04:50;18.07;;;16.53;;
3095;SDS011;1558;42.700;23.360;2023-07-31T02:07:18;18.83;;;17.23;;
3095;SDS011;1558;42.700;23.360;2023-07-31T02:09:46;19.27;;;17.33;;
3095;SDS011;1558;42.700;23.360;2023-07-31T02:12:14;20.23;;;18.43;;
3095;SDS011;1558;42.700;23.360;2023-07-31T02:14:42;19.17;;;17.60;;
3095;SDS011;1558;42.700;23.360;2023-07-31T02:17:12;20.87;;;19.07;;
3095;SDS011;1558;42.700;23.360;2023-07-31T02:19:40;20.57;;;18.87;;
3095;SDS011;1558;42.700;23.360;2023-07-31T02:22:08;21.30;;;19.50;;
3095;SDS011;1558;42.700;23.360;2023-07-31T02:24:36;20.43;;;18.63;;
3095;SDS011;1558;42.700;23.360;2023-07-31T02:27:04;20.83;;;18.93;;
3095;SDS011;1558;42.700;23.360;2023-07-31T02:29:33;19.60;;;17.80;;
3095;SDS011;1558;42.700;23.360;2023-07-31T02:32:01;21.40;;;19.60;;
3095;SDS011;1558;42.700;23.360;2023-07-31T02:34:32;21.70;;;19.80;;
3095;SDS011;1558;42.700;23.360;2023-07-31T02:37:00;21.57;;;19.67;;
3095;SDS011;1558;42.700;23.360;2023-07-31T02:39:28;22.53;;;20.53;;
3095;SDS011;1558;42.700;23.360;2023-07-31T02:41:56;21.80;;;19.97;;
3095;SDS011;1558;42.700;23.360;2023-07-31T02:44:24;22.57;;;20.50;;
3095;SDS011;1558;42.700;23.360;2023-07-31T02:46:52;22.23;;;20.37;;
3095;SDS011;1558;42.700;23.360;2023-07-31T02:49:20;23.47;;;21.47;;
3095;SDS011;1558;42.700;23.360;2023-07-31T02:51:49;23.00;;;20.80;;
3095;SDS011;1558;42.700;23.360;2023-07-31T02:54:18;23.13;;;21.23;;
3095;SDS011;1558;42.700;23.360;2023-07-31T02:56:48;24.00;;;21.93;;
3095;SDS011;1558;42.700;23.360;2023-07-31T02:59:16;24.63;;;22.47;;
3095;SDS011;1558;42.700;23.360;2023-07-31T03:01:44;22.77;;;20.87;;
3095;SDS011;1558;42.700;23.360;2023-07-31T03:04:12;23.33;;;21.33;;
3095;SDS011;1558;42.700;23.360;2023-07-31T03:06:44;23.47;;;21.40;;
3095;SDS011;1558;42.700;23.360;2023-07-31T03:09:15;23.43;;;21.33;;
3095;SDS011;1558;42.700;23.360;2023-07-31T03:11:43;23.10;;;21.20;;
3095;SDS011;1558;42.700;23.360;2023-07-31T03:14:11;23.07;;;21.17;;
3095;SDS011;1558;42.700;23.360;2023-07-31T03:16:40;23.27;;;21.17;;
3095;SDS011;1558;42.700;23.360;2023-07-31T03:19:08;23.93;;;21.93;;
3095;SDS011;1558;42.700;23.360;2023-07-31T03:21:36;24.07;;;22.00;;
3095;SDS011;1558;42.700;23.360;2023-07-31T03:24:04;23.63;;;21.57;;
3095;SDS011;1558;42.700;23.360;2023-07-31T03:26:34;24.07;;;21.93;;
3095;SDS011;1558;42.700;23.360;2023-07-31T03:29:03;23.73;;;21.50;;
3095;SDS011;1558;42.700;23.360;2023-07-31T03:31:31;23.27;;;21.27;;
3095;SDS011;1558;42.700;23.360;2023-07-31T03:33:59;24.00;;;21.77;;
3095;SDS011;1558;42.700;23.360;2023-07-31T03:36:27;23.43;;;21.40;;
3095;SDS011;1558;42.700;23.360;2023-07-31T03:38:56;24.30;;;22.10;;
3095;SDS011;1558;42.700;23.360;2023-07-31T03:41:24;25.17;;;22.97;;
3095;SDS011;1558;42.700;23.360;2023-07-31T03:43:53;24.23;;;22.03;;
3095;SDS011;1558;42.700;23.360;2023-07-31T03:46:22;23.20;;;21.20;;
3095;SDS011;1558;42.700;23.360;2023-07-31T03:48:51;23.27;;;21.27;;
3095;SDS011;1558;42.700;23.360;2023-07-31T03:51:19;24.43;;;22.27;;
3095;SDS011;1558;42.700;23.360;2023-07-31T03:53:47;24.20;;;22.10;;
3095;SDS011;1558;42.700;23.360;2023-07-31T03:56:15;23.83;;;21.53;;
3095;SDS011;1558;42.700;23.360;2023-07-31T03:58:43;24.30;;;22.10;;
3095;SDS011;1558;42.700;23.360;2023-07-31T04:01:14;24.53;;;22.07;;
3095;SDS011;1558;42.700;23.360;2023-07-31T04:03:43;24.47;;;22.10;;
3095;SDS011;1558;42.700;23.360;2023-07-31T04:06:11;25.17;;;22.97;;
3095;SDS011;1558;42.700;23.360;2023-07-31T04:08:39;23.23;;;21.13;;
3095;SDS011;1558;42.700;23.360;2023-07-31T04:11:07;25.50;;;23.03;;
3095;SDS011;1558;42.700;23.360;2023-07-31T04:13:35;24.97;;;22.57;;
3095;SDS011;1558;42.700;23.360;2023-07-31T04:16:03;24.47;;;22.27;;
3095;SDS011;1558;42.700;23.360;2023-07-31T04:18:33;24.53;;;22.23;;
3095;SDS011;1558;42.700;23.360;2023-07-31T04:21:01;25.77;;;23.20;;
3095;SDS011;1558;42.700;23.360;2023-07-31T04:23:29;25.63;;;23.23;;
3095;SDS011;1558;42.700;23.360;2023-07-31T04:25:57;25.23;;;22.93;;
3095;SDS011;1558;42.700;23.360;2023-07-31T04:28:25;24.77;;;22.57;;
3095;SDS011;1558;42.700;23.360;2023-07-31T04:30:53;27.27;;;24.67;;
3095;SDS011;1558;42.700;23.360;2023-07-31T04:33:22;26.23;;;23.83;;
3095;SDS011;1558;42.700;23.360;2023-07-31T04:35:51;24.77;;;22.50;;
3095;SDS011;1558;42.700;23.360;2023-07-31T04:38:21;25.57;;;23.17;;
3095;SDS011;1558;42.700;23.360;2023-07-31T04:40:49;25.40;;;23.00;;
3095;SDS011;1558;42.700;23.360;2023-07-31T04:43:17;24.97;;;22.57;;
3095;SDS011;1558;42.700;23.360;2023-07-31T04:45:45;25.37;;;23.00;;
3095;SDS011;1558;42.700;23.360;2023-07-31T04:48:14;25.63;;;23.30;;
3095;SDS011;1558;42.700;23.360;2023-07-31T04:50:42;26.10;;;23.50;;
3095;SDS011;1558;42.700;23.360;2023-07-31T04:53:12;24.37;;;21.97;;
3095;SDS011;1558;42.700;23.360;2023-07-31T04:55:40;25.27;;;22.73;;
3095;SDS011;1558;42.700;23.360;2023-07-31T04:58:08;23.70;;;21.55;;
3095;SDS011;1558;42.700;23.360;2023-07-31T05:00:36;23.85;;;21.55;;
3095;SDS011;1558;42.700;23.360;2023-07-31T05:03:04;24.88;;;22.33;;
3095;SDS011;1558;42.700;23.360;2023-07-31T05:05:33;22.98;;;20.73;;
3095;SDS011;1558;42.700;23.360;2023-07-31T05:08:02;23.27;;;21.08;;
3095;SDS011;1558;42.700;23.360;2023-07-31T05:10:32;23.25;;;21.02;;
3095;SDS011;1558;42.700;23.360;2023-07-31T05:13:00;23.85;;;21.52;;
3095;SDS011;1558;42.700;23.360;2023-07-31T05:15:28;22.10;;;20.17;;
3095;SDS011;1558;42.700;23.360;2023-07-31T05:17:56;21.65;;;19.75;;
3095;SDS011;1558;42.700;23.360;2023-07-31T05:20:24;22.55;;;19.92;;
3095;SDS011;1558;42.700;23.360;2023-07-31T05:22:54;20.92;;;18.88;;
3095;SDS011;1558;42.700;23.360;2023-07-31T05:25:22;20.25;;;18.65;;
3095;SDS011;1558;42.700;23.360;2023-07-31T05:27:51;21.05;;;19.15;;
3095;SDS011;1558;42.700;23.360;2023-07-31T05:30:19;19.92;;;18.33;;
3095;SDS011;1558;42.700;23.360;2023-07-31T05:32:48;19.88;;;18.13;;
3095;SDS011;1558;42.700;23.360;2023-07-31T05:35:16;18.50;;;17.00;;
3095;SDS011;1558;42.700;23.360;2023-07-31T05:37:44;18.38;;;16.77;;
3095;SDS011;1558;42.700;23.360;2023-07-31T05:40:12;19.50;;;17.50;;
3095;SDS011;1558;42.700;23.360;2023-07-31T05:42:40;17.48;;;15.95;;
3095;SDS011;1558;42.700;23.360;2023-07-31T05:45:10;17.27;;;15.50;;
3095;SDS011;1558;42.700;23.360;2023-07-31T05:47:39;17.05;;;15.60;;
3095;SDS011;1558;42.700;23.360;2023-07-31T05:50:08;17.05;;;15.55;;
3095;SDS011;1558;42.700;23.360;2023-07-31T05:52:36;15.98;;;14.55;;
3095;SDS011;1558;42.700;23.360;2023-07-31T05:55:05;15.38;;;14.07;;
3095;SDS011;1558;42.700;23.360;2023-07-31T05:57:34;13.85;;;12.85;;
3095;SDS011;1558;42.700;23.360;2023-07-31T06:00:02;13.13;;;12.10;;
3095;SDS011;1558;42.700;23.360;2023-07-31T06:02:33;14.18;;;13.15;;
3095;SDS011;1558;42.700;23.360;2023-07-31T06:05:04;13.82;;;12.25;;
3095;SDS011;1558;42.700;23.360;2023-07-31T06:07:34;13.18;;;11.90;;
3095;SDS011;1558;42.700;23.360;2023-07-31T06:10:02;12.70;;;11.60;;
3095;SDS011;1558;42.700;23.360;2023-07-31T06:12:32;11.57;;;10.48;;
3095;SDS011;1558;42.700;23.360;2023-07-31T06:15:01;11.38;;;10.25;;
3095;SDS011;1558;42.700;23.360;2023-07-31T06:17:30;10.45;;;9.57;;
3095;SDS011;1558;42.700;23.360;2023-07-31T06:20:00;10.93;;;10.02;;
3095;SDS011;1558;42.700;23.360;2023-07-31T06:22:28;10.77;;;9.77;;
3095;SDS011;1558;42.700;23.360;2023-07-31T06:24:56;10.88;;;9.68;;
3095;SDS011;1558;42.700;23.360;2023-07-31T06:27:24;8.95;;;8.25;;
3095;SDS011;1558;42.700;23.360;2023-07-31T06:29:52;9.43;;;8.63;;
3095;SDS011;1558;42.700;23.360;2023-07-31T06:32:20;8.27;;;7.45;;
3095;SDS011;1558;42.700;23.360;2023-07-31T06:34:49;8.52;;;7.72;;
3095;SDS011;1558;42.700;23.360;2023-07-31T06:37:18;11.00;;;7.47;;
3095;SDS011;1558;42.700;23.360;2023-07-31T06:39:46;8.52;;;7.82;;
3095;SDS011;1558;42.700;23.360;2023-07-31T06:42:14;8.90;;;8.00;;
3095;SDS011;1558;42.700;23.360;2023-07-31T06:44:42;8.23;;;7.43;;
3095;SDS011;1558;42.700;23.360;2023-07-31T06:47:11;7.75;;;7.13;;
3095;SDS011;1558;42.700;23.360;2023-07-31T06:49:39;7.43;;;6.60;;
3095;SDS011;1558;42.700;23.360;2023-07-31T06:52:07;7.97;;;6.47;;
3095;SDS011;1558;42.700;23.360;2023-07-31T06:54:39;7.50;;;6.75;;
3095;SDS011;1558;42.700;23.360;2023-07-31T06:57:07;8.18;;;7.15;;
3095;SDS011;1558;42.700;23.360;2023-07-31T06:59:35;7.78;;;6.97;;
3095;SDS011;1558;42.700;23.360;2023-07-31T07:02:03;8.60;;;7.68;;
3095;SDS011;1558;42.700;23.360;2023-07-31T07:04:32;7.47;;;6.78;;
3095;SDS011;1558;42.700;23.360;2023-07-31T07:07:00;6.95;;;6.25;;
3095;SDS011;1558;42.700;23.360;2023-07-31T07:09:28;11.40;;;6.90;;
3095;SDS011;1558;42.700;23.360;2023-07-31T07:11:58;7.15;;;6.55;;
3095;SDS011;1558;42.700;23.360;2023-07-31T07:14:26;8.98;;;6.90;;
3095;SDS011;1558;42.700;23.360;2023-07-31T07:16:54;6.55;;;5.80;;
3095;SDS011;1558;42.700;23.360;2023-07-31T07:19:22;7.25;;;6.55;;
3095;SDS011;1558;42.700;23.360;2023-07-31T07:21:50;5.97;;;5.47;;
3095;SDS011;1558;42.700;23.360;2023-07-31T07:24:18;8.25;;;5.50;;
3095;SDS011;1558;42.700;23.360;2023-07-31T07:26:46;6.68;;;5.50;;
3095;SDS011;1558;42.700;23.360;2023-07-31T07:29:15;5.93;;;5.25;;
3095;SDS011;1558;42.700;23.360;2023-07-31T07:31:44;5.70;;;5.30;;
3095;SDS011;1558;42.700;23.360;2023-07-31T07:34:12;7.93;;;5.55;;
3095;SDS011;1558;42.700;23.360;2023-07-31T07:36:41;5.85;;;5.28;;
3095;SDS011;1558;42.700;23.360;2023-07-31T07:39:09;8.45;;;5.65;;
3095;SDS011;1558;42.700;23.360;2023-07-31T07:41:38;5.85;;;5.22;;
3095;SDS011;1558;42.700;23.360;2023-07-31T07:44:07;5.80;;;5.25;;
3095;SDS011;1558;42.700;23.360;2023-07-31T07:46:36;7.35;;;5.57;;
3095;SDS011;1558;42.700;23.360;2023-07-31T07:49:05;5.57;;;5.18;;
3095;SDS011;1558;42.700;23.360;2023-07-31T07:51:33;7.55;;;6.10;;
3095;SDS011;1558;42.700;23.360;2023-07-31T07:54:01;5.97;;;5.47;;
3095;SDS011;1558;42.700;23.360;2023-07-31T07:56:29;6.18;;;5.57;;
3095;SDS011;1558;42.700;23.360;2023-07-31T07:58:57;5.53;;;4.93;;
3095;SDS011;1558;42.700;23.360;2023-07-31T08:01:25;7.70;;;5.38;;
3095;SDS011;1558;42.700;23.360;2023-07-31T08:03:54;6.65;;;5.00;;
3095;SDS011;1558;42.700;23.360;2023-07-31T08:06:23;7.50;;;5.72;;
3095;SDS011;1558;42.700;23.360;2023-07-31T08:08:51;8.38;;;5.57;;
3095;SDS011;1558;42.700;23.360;2023-07-31T08:11:19;5.45;;;4.78;;
3095;SDS011;1558;42.700;23.360;2023-07-31T08:13:48;5.63;;;5.10;;
3095;SDS011;1558;42.700;23.360;2023-07-31T08:16:16;6.00;;;5.55;;
3095;SDS011;1558;42.700;23.360;2023-07-31T08:18:44;5.55;;;5.10;;
3095;SDS011;1558;42.700;23.360;2023-07-31T08:21:14;5.20;;;4.70;;
3095;SDS011;1558;42.700;23.360;2023-07-31T08:23:42;6.03;;;5.43;;
3095;SDS011;1558;42.700;23.360;2023-07-31T08:26:14;5.55;;;5.15;;
3095;SDS011;1558;42.700;23.360;2023-07-31T08:28:43;5.53;;;5.00;;
3095;SDS011;1558;42.700;23.360;2023-07-31T08:31:11;5.03;;;4.60;;
3095;SDS011;1558;42.700;23.360;2023-07-31T08:33:41;5.60;;;5.05;;
3095;SDS011;1558;42.700;23.360;2023-07-31T08:36:14;5.30;;;4.90;;
3095;SDS011;1558;42.700;23.360;2023-07-31T08:38:44;8.00;;;5.10;;
3095;SDS011;1558;42.700;23.360;2023-07-31T08:41:13;5.00;;;4.50;;
3095;SDS011;1558;42.700;23.360;2023-07-31T08:43:43;6.00;;;5.40;;
3095;SDS011;1558;42.700;23.360;2023-07-31T08:46:11;6.05;;;5.25;;
3095;SDS011;1558;42.700;23.360;2023-07-31T08:48:41;6.78;;;4.97;;
3095;SDS011;1558;42.700;23.360;2023-07-31T08:51:10;9.48;;;5.25;;
3095;SDS011;1558;42.700;23.360;2023-07-31T08:53:43;5.90;;;5.35;;
3095;SDS011;1558;42.700;23.360;2023-07-31T08:56:11;6.95;;;5.30;;
3095;SDS011;1558;42.700;23.360;2023-07-31T08:58:41;5.50;;;5.00;;
3095;SDS011;1558;42.700;23.360;2023-07-31T09:01:09;5.63;;;5.13;;
3095;SDS011;1558;42.700;23.360;2023-07-31T09:03:39;6.07;;;5.25;;
3095;SDS011;1558;42.700;23.360;2023-07-31T09:06:09;5.68;;;5.22;;
3095;SDS011;1558;42.700;23.360;2023-07-31T09:08:38;5.40;;;4.90;;
3095;SDS011;1558;42.700;23.360;2023-07-31T09:11:11;4.50;;;4.10;;
3095;SDS011;1558;42.700;23.360;2023-07-31T09:13:40;6.13;;;4.80;;
3095;SDS011;1558;42.700;23.360;2023-07-31T09:16:09;6.80;;;4.40;;
3095;SDS011;1558;42.700;23.360;2023-07-31T09:18:46;4.88;;;4.22;;
3095;SDS011;1558;42.700;23.360;2023-07-31T09:21:21;8.93;;;4.72;;
3095;SDS011;1558;42.700;23.360;2023-07-31T09:23:50;4.75;;;4.32;;
3095;SDS011;1558;42.700;23.360;2023-07-31T09:26:29;4.85;;;4.43;;
3095;SDS011;1558;42.700;23.360;2023-07-31T09:29:00;5.28;;;4.80;;
3095;SDS011;1558;42.700;23.360;2023-07-31T09:31:38;4.90;;;4.45;;
3095;SDS011;1558;42.700;23.360;2023-07-31T09:34:08;5.10;;;4.70;;
3095;SDS011;1558;42.700;23.360;2023-07-31T09:36:41;8.35;;;5.80;;
3095;SDS011;1558;42.700;23.360;2023-07-31T09:39:11;6.57;;;5.32;;
3095;SDS011;1558;42.700;23.360;2023-07-31T09:41:42;5.75;;;5.03;;
3095;SDS011;1558;42.700;23.360;2023-07-31T09:44:11;6.65;;;5.25;;
3095;SDS011;1558;42.700;23.360;2023-07-31T09:46:39;5.57;;;5.10;;
3095;SDS011;1558;42.700;23.360;2023-07-31T09:49:08;4.78;;;4.38;;
3095;SDS011;1558;42.700;23.360;2023-07-31T09:51:37;4.80;;;4.50;;
3095;SDS011;1558;42.700;23.360;2023-07-31T09:54:09;6.45;;;4.20;;
3095;SDS011;1558;42.700;23.360;2023-07-31T09:56:41;4.43;;;4.03;;
3095;SDS011;1558;42.700;23.360;2023-07-31T09:59:12;7.65;;;3.55;;
3095;SDS011;1558;42.700;23.360;2023-07-31T10:01:41;4.47;;;3.90;;
3095;SDS011;1558;42.700;23.360;2023-07-31T10:04:10;4.35;;;3.70;;
3095;SDS011;1558;42.700;23.360;2023-07-31T10:06:40;6.57;;;3.80;;
3095;SDS011;1558;42.700;23.360;2023-07-31T10:09:12;5.05;;;3.75;;
3095;SDS011;1558;42.700;23.360;2023-07-31T10:11:45;4.25;;;3.85;;
3095;SDS011;1558;42.700;23.360;2023-07-31T10:14:17;5.05;;;3.72;;
3095;SDS011;1558;42.700;23.360;2023-07-31T10:16:47;4.05;;;3.50;;
3095;SDS011;1558;42.700;23.360;2023-07-31T10:19:18;5.00;;;3.40;;
3095;SDS011;1558;42.700;23.360;2023-07-31T10:21:47;4.38;;;3.55;;
3095;SDS011;1558;42.700;23.360;2023-07-31T10:24:17;4.75;;;4.30;;
3095;SDS011;1558;42.700;23.360;2023-07-31T10:26:46;5.75;;;4.93;;
3095;SDS011;1558;42.700;23.360;2023-07-31T10:29:16;4.13;;;3.83;;
3095;SDS011;1558;42.700;23.360;2023-07-31T10:31:45;6.47;;;3.90;;
3095;SDS011;1558;42.700;23.360;2023-07-31T10:34:14;3.67;;;3.38;;
3095;SDS011;1558;42.700;23.360;2023-07-31T10:36:42;3.75;;;3.30;;
3095;SDS011;1558;42.700;23.360;2023-07-31T10:42:12;5.20;;;3.47;;
3095;SDS011;1558;42.700;23.360;2023-07-31T10:44:43;3.75;;;3.25;;
3095;SDS011;1558;42.700;23.360;2023-07-31T10:47:14;7.30;;;3.53;;
3095;SDS011;1558;42.700;23.360;2023-07-31T10:49:44;5.78;;;5.03;;
3095;SDS011;1558;42.700;23.360;2023-07-31T10:52:13;4.63;;;3.63;;
3095;SDS011;1558;42.700;23.360;2023-07-31T10:54:42;5.97;;;5.47;;
3095;SDS011;1558;42.700;23.360;2023-07-31T10:57:18;5.40;;;4.03;;
3095;SDS011;1558;42.700;23.360;2023-07-31T10:59:48;4.97;;;4.53;;
3095;SDS011;1558;42.700;23.360;2023-07-31T11:02:23;4.22;;;3.92;;
3095;SDS011;1558;42.700;23.360;2023-07-31T11:05:05;4.00;;;3.63;;
3095;SDS011;1558;42.700;23.360;2023-07-31T11:07:47;3.92;;;3.63;;
3095;SDS011;1558;42.700;23.360;2023-07-31T11:10:18;3.47;;;3.22;;
3095;SDS011;1558;42.700;23.360;2023-07-31T11:12:47;3.38;;;3.17;;
3095;SDS011;1558;42.700;23.360;2023-07-31T11:15:15;4.05;;;3.75;;
3095;SDS011;1558;42.700;23.360;2023-07-31T11:17:43;4.00;;;3.70;;
3095;SDS011;1558;42.700;23.360;2023-07-31T11:20:11;5.35;;;4.10;;
3095;SDS011;1558;42.700;23.360;2023-07-31T11:22:39;3.70;;;3.40;;
3095;SDS011;1558;42.700;23.360;2023-07-31T11:25:09;5.90;;;3.72;;
3095;SDS011;1558;42.700;23.360;2023-07-31T11:27:40;3.60;;;3.30;;
3095;SDS011;1558;42.700;23.360;2023-07-31T11:30:10;4.53;;;3.70;;
3095;SDS011;1558;42.700;23.360;2023-07-31T11:32:39;4.40;;;3.67;;
3095;SDS011;1558;42.700;23.360;2023-07-31T11:35:07;4.72;;;3.47;;
3095;SDS011;1558;42.700;23.360;2023-07-31T11:37:40;3.53;;;3.22;;
3095;SDS011;1558;42.700;23.360;2023-07-31T11:40:09;3.58;;;3.28;;
3095;SDS011;1558;42.700;23.360;2023-07-31T11:42:39;4.07;;;3.75;;
3095;SDS011;1558;42.700;23.360;2023-07-31T11:45:08;4.03;;;3.72;;
3095;SDS011;1558;42.700;23.360;2023-07-31T11:47:37;5.00;;;3.95;;
3095;SDS011;1558;42.700;23.360;2023-07-31T11:50:06;4.97;;;4.47;;
3095;SDS011;1558;42.700;23.360;2023-07-31T11:52:38;8.95;;;4.07;;
3095;SDS011;1558;42.700;23.360;2023-07-31T11:55:10;10.52;;;4.15;;
3095;SDS011;1558;42.700;23.360;2023-07-31T11:57:39;4.47;;;4.03;;
3095;SDS011;1558;42.700;23.360;2023-07-31T12:00:11;13.98;;;4.50;;
3095;SDS011;1558;42.700;23.360;2023-07-31T12:02:40;4.70;;;4.40;;
3095;SDS011;1558;42.700;23.360;2023-07-31T12:05:13;6.43;;;4.28;;
3095;SDS011;1558;42.700;23.360;2023-07-31T12:07:44;4.28;;;3.88;;
3095;SDS011;1558;42.700;23.360;2023-07-31T12:10:22;4.38;;;3.97;;
3095;SDS011;1558;42.700;23.360;2023-07-31T12:13:02;6.63;;;4.30;;
3095;SDS011;1558;42.700;23.360;2023-07-31T12:15:35;9.40;;;4.40;;
3095;SDS011;1558;42.700;23.360;2023-07-31T12:18:05;5.57;;;5.07;;
3095;SDS011;1558;42.700;23.360;2023-07-31T12:20:39;4.88;;;4.47;;
3095;SDS011;1558;42.700;23.360;2023-07-31T12:23:12;5.38;;;4.82;;
3095;SDS011;1558;42.700;23.360;2023-07-31T12:25:42;5.80;;;5.30;;
3095;SDS011;1558;42.700;23.360;2023-07-31T12:28:12;6.55;;;5.47;;
3095;SDS011;1558;42.700;23.360;2023-07-31T12:30:40;6.70;;;6.00;;
3095;SDS011;1558;42.700;23.360;2023-07-31T12:33:12;6.43;;;5.60;;
3095;SDS011;1558;42.700;23.360;2023-07-31T12:35:43;6.32;;;5.82;;
3095;SDS011;1558;42.700;23.360;2023-07-31T12:38:12;6.95;;;6.43;;
3095;SDS011;1558;42.700;23.360;2023-07-31T12:40:41;7.22;;;6.72;;
3095;SDS011;1558;42.700;23.360;2023-07-31T12:43:09;6.82;;;6.22;;
3095;SDS011;1558;42.700;23.360;2023-07-31T12:45:41;6.72;;;6.13;;
3095;SDS011;1558;42.700;23.360;2023-07-31T12:48:09;6.25;;;5.75;;
3095;SDS011;1558;42.700;23.360;2023-07-31T12:50:37;6.78;;;6.18;;
3095;SDS011;1558;42.700;23.360;2023-07-31T12:53:06;7.55;;;6.82;;
3095;SDS011;1558;42.700;23.360;2023-07-31T12:55:35;8.10;;;7.32;;
3095;SDS011;1558;42.700;23.360;2023-07-31T12:58:04;7.68;;;6.90;;
3095;SDS011;1558;42.700;23.360;2023-07-31T13:00:33;7.63;;;7.00;;
3095;SDS011;1558;42.700;23.360;2023-07-31T13:03:02;7.03;;;6.53;;
3095;SDS011;1558;42.700;23.360;2023-07-31T13:05:30;7.78;;;7.03;;
3095;SDS011;1558;42.700;23.360;2023-07-31T13:07:58;8.23;;;7.55;;
3095;SDS011;1558;42.700;23.360;2023-07-31T13:10:27;7.95;;;7.35;;
3095;SDS011;1558;42.700;23.360;2023-07-31T13:12:56;8.13;;;7.30;;
3095;SDS011;1558;42.700;23.360;2023-07-31T13:15:24;7.82;;;7.10;;
3095;SDS011;1558;42.700;23.360;2023-07-31T13:17:54;7.72;;;6.90;;
3095;SDS011;1558;42.700;23.360;2023-07-31T13:20:23;6.82;;;6.22;;
3095;SDS011;1558;42.700;23.360;2023-07-31T13:22:51;7.60;;;7.00;;
3095;SDS011;1558;42.700;23.360;2023-07-31T13:25:19;7.97;;;7.38;;
3095;SDS011;1558;42.700;23.360;2023-07-31T13:27:47;7.32;;;6.72;;
3095;SDS011;1558;42.700;23.360;2023-07-31T13:30:16;7.22;;;6.72;;
3095;SDS011;1558;42.700;23.360;2023-07-31T13:32:44;7.45;;;6.57;;
3095;SDS011;1558;42.700;23.360;2023-07-31T13:35:15;7.15;;;6.20;;
3095;SDS011;1558;42.700;23.360;2023-07-31T13:37:43;6.55;;;5.95;;
3095;SDS011;1558;42.700;23.360;2023-07-31T13:40:11;6.20;;;5.70;;
3095;SDS011;1558;42.700;23.360;2023-07-31T13:42:39;6.68;;;6.07;;
3095;SDS011;1558;42.700;23.360;2023-07-31T13:45:08;6.22;;;5.72;;
3095;SDS011;1558;42.700;23.360;2023-07-31T13:47:36;6.10;;;5.60;;
3095;SDS011;1558;42.700;23.360;2023-07-31T13:50:05;6.10;;;5.68;;
3095;SDS011;1558;42.700;23.360;2023-07-31T13:52:35;6.43;;;5.80;;
3095;SDS011;1558;42.700;23.360;2023-07-31T13:55:04;6.13;;;5.72;;
3095;SDS011;1558;42.700;23.360;2023-07-31T13:57:32;6.10;;;5.57;;
3095;SDS011;1558;42.700;23.360;2023-07-31T14:00:01;5.97;;;5.57;;
3095;SDS011;1558;42.700;23.360;2023-07-31T14:02:30;6.20;;;5.70;;
3095;SDS011;1558;42.700;23.360;2023-07-31T14:04:59;6.00;;;5.25;;
3095;SDS011;1558;42.700;23.360;2023-07-31T14:07:27;5.80;;;5.40;;
3095;SDS011;1558;42.700;23.360;2023-07-31T14:09:57;6.57;;;6.07;;
3095;SDS011;1558;42.700;23.360;2023-07-31T14:12:25;6.43;;;5.85;;
3095;SDS011;1558;42.700;23.360;2023-07-31T14:15:08;6.57;;;6.07;;
3095;SDS011;1558;42.700;23.360;2023-07-31T14:17:37;6.78;;;6.28;;
3095;SDS011;1558;42.700;23.360;2023-07-31T14:20:06;5.68;;;5.18;;
3095;SDS011;1558;42.700;23.360;2023-07-31T14:22:36;8.63;;;6.47;;
3095;SDS011;1558;42.700;23.360;2023-07-31T14:25:06;6.40;;;5.90;;
3095;SDS011;1558;42.700;23.360;2023-07-31T14:27:36;6.82;;;6.00;;
3095;SDS011;1558;42.700;23.360;2023-07-31T14:30:05;5.68;;;5.28;;
3095;SDS011;1558;42.700;23.360;2023-07-31T14:32:35;5.82;;;5.43;;
3095;SDS011;1558;42.700;23.360;2023-07-31T14:35:03;5.72;;;5.22;;
3095;SDS011;1558;42.700;23.360;2023-07-31T14:37:36;7.47;;;5.28;;
3095;SDS011;1558;42.700;23.360;2023-07-31T14:40:07;6.38;;;5.63;;
3095;SDS011;1558;42.700;23.360;2023-07-31T14:42:36;5.72;;;4.93;;
3095;SDS011;1558;42.700;23.360;2023-07-31T14:45:05;7.35;;;5.30;;
3095;SDS011;1558;42.700;23.360;2023-07-31T14:47:34;6.18;;;5.60;;
3095;SDS011;1558;42.700;23.360;2023-07-31T14:50:03;6.90;;;5.38;;
3095;SDS011;1558;42.700;23.360;2023-07-31T14:52:31;7.97;;;5.20;;
3095;SDS011;1558;42.700;23.360;2023-07-31T14:55:00;6.63;;;5.55;;
3095;SDS011;1558;42.700;23.360;2023-07-31T14:57:30;5.85;;;5.45;;
3095;SDS011;1558;42.700;23.360;2023-07-31T14:59:58;5.65;;;5.15;;
3095;SDS011;1558;42.700;23.360;2023-07-31T15:02:26;6.28;;;5.75;;
3095;SDS011;1558;42.700;23.360;2023-07-31T15:04:55;5.88;;;4.95;;
3095;SDS011;1558;42.700;23.360;2023-07-31T15:07:23;5.10;;;4.70;;
3095;SDS011;1558;42.700;23.360;2023-07-31T15:09:51;4.97;;;4.60;;